Time;durP1;ratioP1;P1;durP2;ratioP2;P2;SDS_P1;SDS_P2;PMS_P1;PMS_P2;Temp;Humidity;BMP_temperature;BMP_pressure;BME280_temperature;BME280_humidity;BME280_pressure;Samples;Min_cycle;Max_cycle;Signal;HPM_P1;HPM_P2
2023/12/01 00:01:38;;;;;;;17.40;9.10;;;3.70;99.90;;;;;;5049453;28;20220;-73
2023/12/01 00:04:03;;;;;;;19.30;9.50;;;3.70;99.90;;;;;;5067664;28;20220;-74
2023/12/01 00:06:29;;;;;;;19.70;10.73;;;3.80;99.90;;;;;;5052272;28;20228;-74
2023/12/01 00:08:55;;;;;;;22.20;10.27;;;3.80;99.90;;;;;;5040085;28;20215;-72
2023/12/01 00:11:20;;;;;;;19.90;10.30;;;3.70;99.90;;;;;;5022801;28;20220;-74
2023/12/01 00:13:46;;;;;;;19.30;9.50;;;3.70;99.90;;;;;;5036035;28;20211;-73
2023/12/01 00:16:12;;;;;;;17.97;9.83;;;3.70;99.90;;;;;;5067878;28;20307;-73
2023/12/01 00:18:37;;;;;;;19.20;9.97;;;3.80;99.90;;;;;;5068503;28;20250;-73
2023/12/01 00:21:03;;;;;;;21.80;10.87;;;3.70;99.90;;;;;;5067433;28;20211;-72
2023/12/01 00:23:30;;;;;;;17.10;10.20;;;3.70;99.90;;;;;;5068391;28;20224;-73
2023/12/01 00:25:56;;;;;;;14.73;8.60;;;3.70;99.90;;;;;;5044078;28;20603;-74
2023/12/01 00:28:22;;;;;;;15.03;8.53;;;3.80;99.90;;;;;;5022166;28;20485;-74
2023/12/01 00:30:48;;;;;;;18.80;9.40;;;3.80;99.90;;;;;;5045506;28;20489;-74
2023/12/01 00:33:14;;;;;;;21.50;10.20;;;3.80;99.90;;;;;;5049203;28;20227;-74
2023/12/01 00:35:39;;;;;;;23.33;10.33;;;3.80;99.90;;;;;;5039313;28;20471;-74
2023/12/01 00:38:06;;;;;;;16.90;10.10;;;3.80;99.90;;;;;;5043169;28;20208;-74
2023/12/01 00:40:32;;;;;;;18.23;9.77;;;3.80;99.90;;;;;;5068436;28;20360;-74
2023/12/01 00:42:57;;;;;;;18.33;10.47;;;3.80;99.90;;;;;;5017196;28;20458;-74
2023/12/01 00:45:24;;;;;;;17.77;9.30;;;3.80;99.90;;;;;;5016030;28;20440;-74
2023/12/01 00:47:49;;;;;;;17.27;10.20;;;3.80;99.90;;;;;;5029970;28;20450;-75
2023/12/01 00:50:15;;;;;;;13.83;9.20;;;3.70;99.90;;;;;;5016321;28;20224;-74
2023/12/01 00:52:40;;;;;;;17.20;8.57;;;3.80;99.90;;;;;;5045523;28;20236;-74
2023/12/01 00:55:06;;;;;;;14.23;7.77;;;3.80;99.90;;;;;;5031860;28;20236;-74
2023/12/01 00:57:32;;;;;;;15.57;7.57;;;3.80;99.90;;;;;;5068103;28;20234;-74
2023/12/01 00:59:58;;;;;;;14.37;8.20;;;3.70;99.90;;;;;;5029729;28;20217;-75
2023/12/01 01:02:23;;;;;;;10.90;7.00;;;3.80;99.90;;;;;;5033227;28;20218;-74
2023/12/01 01:04:49;;;;;;;14.20;7.53;;;3.80;99.90;;;;;;5013677;28;20258;-75
2023/12/01 01:07:15;;;;;;;15.60;8.13;;;3.80;99.90;;;;;;5059651;28;20223;-73
2023/12/01 01:09:40;;;;;;;15.10;7.63;;;3.80;99.90;;;;;;5035225;28;20216;-75
2023/12/01 01:12:06;;;;;;;13.27;7.87;;;3.80;99.90;;;;;;5026290;28;20225;-73
2023/12/01 01:14:32;;;;;;;13.27;7.30;;;3.80;99.90;;;;;;5024802;28;20594;-74
2023/12/01 01:16:57;;;;;;;13.13;7.80;;;3.80;99.90;;;;;;5049728;28;20691;-74
2023/12/01 01:19:23;;;;;;;12.27;7.13;;;3.70;99.90;;;;;;5029542;28;20236;-73
2023/12/01 01:21:49;;;;;;;11.60;7.67;;;3.70;99.90;;;;;;5051783;28;20221;-75
2023/12/01 01:24:14;;;;;;;13.43;7.23;;;3.70;99.90;;;;;;5033479;28;20246;-74
2023/12/01 01:26:40;;;;;;;10.40;6.50;;;3.70;99.90;;;;;;5048626;28;20225;-74
2023/12/01 01:29:06;;;;;;;10.57;6.30;;;3.70;99.90;;;;;;5021141;28;20220;-74
2023/12/01 01:31:31;;;;;;;8.83;6.60;;;3.70;99.90;;;;;;5044998;28;20228;-74
2023/12/01 01:33:57;;;;;;;16.97;6.40;;;3.70;99.90;;;;;;5040829;28;20236;-74
2023/12/01 01:36:23;;;;;;;13.23;7.13;;;3.70;99.90;;;;;;5034644;28;20239;-74
2023/12/01 01:38:49;;;;;;;11.40;6.70;;;3.70;99.90;;;;;;5048982;28;20753;-74
2023/12/01 01:41:15;;;;;;;10.23;5.20;;;3.70;99.90;;;;;;5036119;28;20221;-73
2023/12/01 01:43:41;;;;;;;14.80;7.20;;;3.70;99.90;;;;;;5050344;28;20797;-74
2023/12/01 01:46:09;;;;;;;10.67;5.37;;;3.70;99.90;;;;;;5018388;28;20224;-74
2023/12/01 01:48:37;;;;;;;11.27;6.13;;;3.70;99.90;;;;;;5032718;28;20217;-74
2023/12/01 01:51:05;;;;;;;9.30;5.63;;;3.70;99.90;;;;;;5031666;28;20459;-74
2023/12/01 01:53:31;;;;;;;8.80;4.90;;;3.60;99.90;;;;;;5029414;28;20464;-74
2023/12/01 01:55:58;;;;;;;10.13;5.80;;;3.60;99.90;;;;;;5036556;28;20547;-74
2023/12/01 01:58:25;;;;;;;12.73;6.60;;;3.60;99.90;;;;;;5038777;28;20470;-74
2023/12/01 02:00:51;;;;;;;12.77;6.23;;;3.60;99.90;;;;;;5015795;28;20443;-74
2023/12/01 02:03:18;;;;;;;10.10;5.23;;;3.60;99.90;;;;;;5011425;28;20494;-74
2023/12/01 02:05:48;;;;;;;8.80;5.27;;;3.60;99.90;;;;;;5013621;28;20461;-74
2023/12/01 02:08:27;;;;;;;16.23;6.03;;;3.70;99.90;;;;;;5061483;28;20451;-74
2023/12/01 02:10:57;;;;;;;11.30;6.50;;;3.70;99.90;;;;;;5029905;28;20451;-74
2023/12/01 02:13:24;;;;;;;9.53;5.50;;;3.60;99.90;;;;;;5064412;28;20508;-74
2023/12/01 02:15:53;;;;;;;8.70;5.30;;;3.60;99.90;;;;;;5047362;28;20471;-74
2023/12/01 02:18:23;;;;;;;10.93;6.03;;;3.60;99.90;;;;;;5046298;28;20455;-74
2023/12/01 02:20:52;;;;;;;8.30;4.70;;;3.60;99.90;;;;;;5054438;28;20471;-74
2023/12/01 02:23:19;;;;;;;8.43;4.87;;;3.60;99.90;;;;;;5038363;28;20819;-74
2023/12/01 02:25:45;;;;;;;8.70;5.77;;;3.70;99.90;;;;;;5019442;28;20956;-74
2023/12/01 02:28:11;;;;;;;9.73;5.50;;;3.70;99.90;;;;;;5018375;28;20473;-73
2023/12/01 02:30:37;;;;;;;7.40;5.87;;;3.70;99.90;;;;;;5049398;28;20601;-74
2023/12/01 02:33:03;;;;;;;13.13;5.50;;;3.70;99.90;;;;;;5030254;28;20510;-74
2023/12/01 02:35:32;;;;;;;9.13;5.50;;;3.60;99.90;;;;;;5063693;28;20235;-74
2023/12/01 02:37:58;;;;;;;5.53;4.10;;;3.40;99.90;;;;;;5030926;28;20489;-74
2023/12/01 02:40:25;;;;;;;6.23;4.70;;;3.40;99.90;;;;;;5048051;28;20505;-73
2023/12/01 02:42:52;;;;;;;7.43;4.60;;;3.30;99.90;;;;;;5031234;28;20456;-74
2023/12/01 02:45:19;;;;;;;8.17;5.03;;;3.30;99.90;;;;;;5010089;28;20455;-75
2023/12/01 02:47:47;;;;;;;9.83;5.23;;;3.30;99.90;;;;;;5040638;28;20446;-74
2023/12/01 02:50:13;;;;;;;7.33;4.23;;;3.20;99.90;;;;;;5050861;28;20966;-74
2023/12/01 02:52:41;;;;;;;7.07;4.17;;;3.20;99.90;;;;;;5071038;28;20526;-74
2023/12/01 02:55:08;;;;;;;9.83;5.33;;;3.20;99.90;;;;;;5050041;28;20521;-74
2023/12/01 02:57:35;;;;;;;6.47;5.20;;;3.10;99.90;;;;;;5052081;28;20453;-74
2023/12/01 03:00:06;;;;;;;6.97;4.30;;;3.10;99.90;;;;;;5019418;28;20948;-74
2023/12/01 03:02:32;;;;;;;8.53;5.03;;;3.10;99.90;;;;;;5050809;28;20457;-74
2023/12/01 03:04:58;;;;;;;8.77;5.17;;;3.10;99.90;;;;;;5033517;28;20451;-75
2023/12/01 03:07:23;;;;;;;7.20;4.67;;;3.10;99.90;;;;;;5036864;28;20776;-74
2023/12/01 03:09:49;;;;;;;7.93;4.50;;;3.10;99.90;;;;;;5023619;28;20460;-74
2023/12/01 03:12:15;;;;;;;9.10;4.73;;;3.00;99.90;;;;;;5031664;28;20299;-73
2023/12/01 03:14:41;;;;;;;8.40;5.37;;;3.10;99.90;;;;;;5017366;28;20229;-74
2023/12/01 03:17:07;;;;;;;7.43;4.13;;;3.10;99.90;;;;;;5047299;28;20494;-74
2023/12/01 03:19:32;;;;;;;7.87;4.70;;;3.00;99.90;;;;;;5031471;28;20217;-74
2023/12/01 03:21:58;;;;;;;6.97;4.20;;;3.00;99.90;;;;;;5031175;28;20201;-74
2023/12/01 03:24:23;;;;;;;6.80;5.00;;;3.00;99.90;;;;;;5048488;28;20275;-74
2023/12/01 03:26:49;;;;;;;7.90;5.00;;;3.00;99.90;;;;;;5065489;28;20209;-75
2023/12/01 03:29:15;;;;;;;8.70;5.30;;;3.00;99.90;;;;;;5030428;28;20314;-74
2023/12/01 03:31:40;;;;;;;6.63;3.70;;;3.00;99.90;;;;;;5051244;28;20239;-74
2023/12/01 03:34:06;;;;;;;8.17;4.30;;;3.00;99.90;;;;;;5051299;28;20234;-74
2023/12/01 03:36:32;;;;;;;7.40;5.30;;;3.00;99.90;;;;;;5057453;28;20714;-74
2023/12/01 03:38:58;;;;;;;6.73;3.73;;;3.10;99.90;;;;;;5009364;28;20216;-74
2023/12/01 03:41:23;;;;;;;8.10;5.40;;;3.10;99.90;;;;;;5015857;28;20217;-74
2023/12/01 03:43:49;;;;;;;9.37;4.20;;;3.10;99.90;;;;;;5030682;28;20228;-73
2023/12/01 03:46:15;;;;;;;7.00;4.47;;;3.10;99.90;;;;;;5018571;28;20216;-74
2023/12/01 03:48:41;;;;;;;6.00;3.87;;;3.10;99.90;;;;;;5031971;28;20702;-74
2023/12/01 03:51:09;;;;;;;5.17;3.27;;;3.10;99.90;;;;;;5018346;28;20459;-74
2023/12/01 03:53:36;;;;;;;6.63;3.93;;;3.10;99.90;;;;;;5034315;28;20263;-74
2023/12/01 03:56:03;;;;;;;9.30;5.13;;;3.10;99.90;;;;;;5037819;28;20508;-73
2023/12/01 03:58:29;;;;;;;6.70;4.30;;;3.10;99.90;;;;;;5032416;28;20447;-74
2023/12/01 04:00:54;;;;;;;6.77;4.80;;;3.10;99.90;;;;;;5028055;28;20471;-73
2023/12/01 04:03:21;;;;;;;7.07;4.57;;;3.10;99.90;;;;;;5041702;28;25535;-74
2023/12/01 04:05:47;;;;;;;7.67;4.47;;;3.00;99.90;;;;;;5016867;28;20217;-74
2023/12/01 04:08:13;;;;;;;9.87;4.67;;;3.00;99.90;;;;;;5031213;28;20461;-73
2023/12/01 04:10:38;;;;;;;6.73;4.20;;;3.10;99.90;;;;;;5021000;28;20227;-74
2023/12/01 04:13:07;;;;;;;9.47;5.27;;;3.10;99.90;;;;;;5031312;28;20266;-74
2023/12/01 04:15:36;;;;;;;7.70;5.40;;;3.10;99.90;;;;;;5036082;28;20231;-74
2023/12/01 04:18:06;;;;;;;7.27;4.40;;;3.10;99.90;;;;;;5036022;28;20446;-74
2023/12/01 04:20:38;;;;;;;9.50;4.50;;;3.00;99.90;;;;;;5068345;28;20446;-74
2023/12/01 04:23:09;;;;;;;6.60;4.40;;;3.10;99.90;;;;;;5041673;28;20465;-75
2023/12/01 04:25:36;;;;;;;6.90;4.93;;;3.10;99.90;;;;;;5052508;28;20446;-73
2023/12/01 04:28:02;;;;;;;6.60;3.30;;;3.00;99.90;;;;;;5048829;28;20439;-74
2023/12/01 04:30:28;;;;;;;5.93;4.47;;;3.00;99.90;;;;;;5034753;28;20521;-74
2023/12/01 04:32:55;;;;;;;5.07;3.90;;;3.10;99.90;;;;;;5063323;28;20456;-73
2023/12/01 04:35:25;;;;;;;7.00;4.77;;;3.10;99.90;;;;;;5031545;28;20462;-73
2023/12/01 04:37:51;;;;;;;5.60;4.00;;;3.10;99.90;;;;;;5072111;28;20461;-74
2023/12/01 04:40:17;;;;;;;7.70;4.60;;;3.10;99.90;;;;;;5074255;28;20548;-74
2023/12/01 04:42:48;;;;;;;9.07;4.60;;;3.10;99.90;;;;;;5051360;28;20322;-74
2023/12/01 04:45:16;;;;;;;8.60;4.70;;;3.10;99.90;;;;;;5048532;28;20233;-74
2023/12/01 04:47:42;;;;;;;10.70;4.63;;;3.10;99.90;;;;;;5066623;28;20489;-74
2023/12/01 04:50:13;;;;;;;7.90;4.47;;;3.10;99.90;;;;;;5050727;28;20466;-74
2023/12/01 04:52:46;;;;;;;6.57;4.43;;;3.10;99.90;;;;;;5032071;28;20467;-74
2023/12/01 04:55:16;;;;;;;9.47;4.77;;;3.10;99.90;;;;;;5075695;28;20474;-74
2023/12/01 04:57:43;;;;;;;6.00;3.30;;;3.10;99.90;;;;;;5040595;28;20474;-74
2023/12/01 05:00:21;;;;;;;7.43;4.33;;;3.00;99.90;;;;;;5047752;28;20477;-74
2023/12/01 05:02:50;;;;;;;5.17;3.40;;;3.00;99.90;;;;;;5037777;28;20540;-74
2023/12/01 05:05:16;;;;;;;4.40;3.40;;;3.00;99.90;;;;;;5052825;28;20457;-73
2023/12/01 05:07:43;;;;;;;7.50;4.00;;;3.00;99.90;;;;;;5053097;28;20525;-74
2023/12/01 05:10:14;;;;;;;7.33;3.70;;;2.90;99.90;;;;;;5043531;28;20455;-74
2023/12/01 05:12:44;;;;;;;4.77;3.10;;;2.90;99.90;;;;;;5033718;28;20467;-74
2023/12/01 05:15:15;;;;;;;5.20;4.00;;;2.80;99.90;;;;;;5028340;28;20451;-74
2023/12/01 05:17:49;;;;;;;5.90;3.33;;;2.80;99.90;;;;;;5037183;28;20446;-74
2023/12/01 05:20:16;;;;;;;8.23;3.60;;;2.90;99.90;;;;;;5033152;28;20442;-73
2023/12/01 05:22:47;;;;;;;7.17;4.77;;;2.80;99.90;;;;;;5051412;28;20458;-73
2023/12/01 05:25:14;;;;;;;9.80;4.27;;;2.80;99.90;;;;;;5031271;28;20516;-73
2023/12/01 05:27:45;;;;;;;6.80;4.07;;;2.90;99.90;;;;;;5044599;28;20588;-74
2023/12/01 05:30:15;;;;;;;3.87;3.37;;;2.90;99.90;;;;;;5044452;28;20459;-74
2023/12/01 05:32:42;;;;;;;4.83;3.20;;;2.80;99.90;;;;;;5032377;28;20512;-74
2023/12/01 05:35:11;;;;;;;9.60;5.07;;;2.90;99.90;;;;;;5049606;28;20464;-73
2023/12/01 05:37:47;;;;;;;6.13;4.00;;;2.90;99.90;;;;;;5052584;28;20438;-74
2023/12/01 05:40:14;;;;;;;6.80;4.47;;;2.90;99.90;;;;;;5033576;28;20471;-74
2023/12/01 05:42:41;;;;;;;5.13;3.73;;;2.90;99.90;;;;;;5063082;28;20458;-74
2023/12/01 05:45:11;;;;;;;5.70;4.40;;;2.90;99.90;;;;;;5017002;28;20448;-74
2023/12/01 05:47:45;;;;;;;8.27;4.73;;;2.90;99.90;;;;;;5057703;28;20450;-74
2023/12/01 05:50:21;;;;;;;6.73;4.30;;;2.90;99.90;;;;;;5038806;28;20569;-74
2023/12/01 05:52:48;;;;;;;6.00;4.80;;;2.90;99.90;;;;;;5039019;28;20454;-74
2023/12/01 05:55:16;;;;;;;6.93;4.63;;;2.80;99.90;;;;;;5052700;28;20466;-73
2023/12/01 05:57:52;;;;;;;8.43;5.60;;;2.90;99.90;;;;;;5037018;28;20446;-74
2023/12/01 06:00:22;;;;;;;7.20;4.90;;;2.80;99.90;;;;;;5043137;28;20999;-73
2023/12/01 06:02:50;;;;;;;7.17;5.50;;;2.80;99.90;;;;;;5055698;28;20458;-73
2023/12/01 06:05:17;;;;;;;11.53;5.43;;;2.80;99.90;;;;;;5070386;28;20981;-73
2023/12/01 06:07:45;;;;;;;10.13;6.13;;;2.70;99.90;;;;;;5060801;28;20456;-74
2023/12/01 06:10:12;;;;;;;9.43;5.63;;;2.80;99.90;;;;;;5048317;28;20473;-74
2023/12/01 06:12:40;;;;;;;16.03;8.17;;;2.70;99.90;;;;;;5070698;28;20490;-74
2023/12/01 06:15:10;;;;;;;9.80;6.10;;;2.70;99.90;;;;;;5077857;28;20450;-72
2023/12/01 06:17:37;;;;;;;7.90;5.17;;;2.70;99.90;;;;;;5078855;28;20504;-71
2023/12/01 06:20:04;;;;;;;6.87;3.77;;;2.70;99.90;;;;;;5033099;28;20512;-71
2023/12/01 06:22:30;;;;;;;9.93;4.80;;;2.70;99.90;;;;;;5051147;28;20458;-74
2023/12/01 06:24:56;;;;;;;5.30;4.07;;;2.70;99.90;;;;;;5038337;28;20450;-74
2023/12/01 06:27:22;;;;;;;7.80;4.67;;;2.60;99.90;;;;;;5027336;28;20442;-74
2023/12/01 06:29:51;;;;;;;4.90;3.73;;;2.70;99.90;;;;;;5067804;28;20457;-74
2023/12/01 06:32:16;;;;;;;11.37;3.73;;;2.70;99.90;;;;;;5056053;28;20580;-74
2023/12/01 06:34:42;;;;;;;5.37;2.97;;;2.70;99.90;;;;;;5048773;28;20510;-73
2023/12/01 06:37:08;;;;;;;7.43;3.40;;;2.70;99.90;;;;;;5052623;28;20454;-74
2023/12/01 06:39:34;;;;;;;6.57;4.43;;;2.60;99.90;;;;;;5051895;28;20219;-74
2023/12/01 06:41:59;;;;;;;5.53;3.63;;;2.60;99.90;;;;;;5050355;28;20234;-73
2023/12/01 06:44:25;;;;;;;6.67;3.87;;;2.60;99.90;;;;;;5069665;28;20628;-74
2023/12/01 06:46:51;;;;;;;5.90;4.07;;;2.60;99.90;;;;;;5069420;28;20216;-74
2023/12/01 06:49:17;;;;;;;7.50;4.10;;;2.60;99.90;;;;;;5034074;28;20502;-74
2023/12/01 06:51:43;;;;;;;7.27;4.57;;;2.70;99.90;;;;;;5069890;28;20227;-74
2023/12/01 06:54:09;;;;;;;6.23;3.70;;;2.70;99.90;;;;;;5050724;28;20306;-74
2023/12/01 06:56:38;;;;;;;5.20;3.87;;;2.70;99.90;;;;;;5049361;28;20526;-73
2023/12/01 06:59:06;;;;;;;10.27;4.67;;;2.70;99.90;;;;;;5064101;28;20227;-74
2023/12/01 07:01:34;;;;;;;5.43;3.43;;;2.70;99.90;;;;;;5029541;28;20508;-73
2023/12/01 07:04:07;;;;;;;6.70;3.97;;;2.70;99.90;;;;;;5031234;28;20479;-72
2023/12/01 07:06:36;;;;;;;3.70;3.20;;;2.60;99.90;;;;;;5026170;28;20448;-74
2023/12/01 07:09:03;;;;;;;4.60;3.30;;;2.60;99.90;;;;;;5035060;28;20446;-74
2023/12/01 07:11:29;;;;;;;6.10;4.17;;;2.70;99.90;;;;;;5047866;28;20462;-73
2023/12/01 07:13:54;;;;;;;7.07;3.90;;;2.70;99.90;;;;;;5051780;28;20455;-74
2023/12/01 07:16:20;;;;;;;4.80;3.43;;;2.70;99.90;;;;;;5049145;28;20227;-74
2023/12/01 07:18:46;;;;;;;7.07;4.37;;;2.70;99.90;;;;;;5050292;28;20226;-74
2023/12/01 07:21:11;;;;;;;4.60;2.97;;;2.70;99.90;;;;;;5067461;28;20219;-74
2023/12/01 07:23:40;;;;;;;4.60;3.30;;;2.60;99.90;;;;;;5054986;28;20275;-73
2023/12/01 07:26:06;;;;;;;6.07;3.37;;;2.60;99.90;;;;;;5067821;28;20226;-73
2023/12/01 07:28:32;;;;;;;5.97;3.20;;;2.60;99.90;;;;;;5034561;28;20454;-74
2023/12/01 07:30:59;;;;;;;3.80;2.70;;;2.50;99.90;;;;;;5052943;28;20520;-74
2023/12/01 07:33:26;;;;;;;4.90;4.17;;;2.50;99.90;;;;;;5068260;28;20235;-74
2023/12/01 07:35:51;;;;;;;5.20;3.60;;;2.50;99.90;;;;;;5051042;28;20486;-74
2023/12/01 07:38:17;;;;;;;3.43;2.80;;;2.60;99.90;;;;;;5063185;28;20450;-74
2023/12/01 07:40:44;;;;;;;4.43;3.43;;;2.50;99.90;;;;;;5068685;28;20220;-74
2023/12/01 07:43:11;;;;;;;5.97;3.73;;;2.50;99.90;;;;;;5046135;28;20219;-73
2023/12/01 07:45:36;;;;;;;5.20;3.60;;;2.50;99.90;;;;;;5051885;28;20447;-74
2023/12/01 07:48:02;;;;;;;5.30;3.87;;;2.50;99.90;;;;;;5048860;28;20443;-74
2023/12/01 07:50:28;;;;;;;6.27;4.10;;;2.60;99.90;;;;;;5051148;28;20222;-74
2023/12/01 07:52:54;;;;;;;6.77;4.00;;;2.60;99.90;;;;;;5050461;28;20231;-74
2023/12/01 07:55:21;;;;;;;4.50;2.93;;;2.50;99.90;;;;;;5050145;28;20224;-74
2023/12/01 07:57:46;;;;;;;5.37;4.00;;;2.60;99.90;;;;;;5067984;28;20240;-74
2023/12/01 08:00:16;;;;;;;5.63;4.20;;;2.60;99.90;;;;;;5031957;28;20484;-74
2023/12/01 08:02:43;;;;;;;4.93;4.07;;;2.60;99.90;;;;;;5070389;28;20264;-73
2023/12/01 08:05:13;;;;;;;6.30;4.13;;;2.70;99.90;;;;;;5058542;28;20489;-73
2023/12/01 08:07:51;;;;;;;6.20;4.00;;;2.70;99.90;;;;;;5027609;28;20479;-73
2023/12/01 08:10:21;;;;;;;3.10;2.80;;;2.70;99.90;;;;;;5052219;28;20458;-74
2023/12/01 08:12:48;;;;;;;6.40;3.53;;;2.70;99.90;;;;;;5054179;28;20466;-74
2023/12/01 08:15:14;;;;;;;7.83;4.60;;;2.60;99.90;;;;;;5022984;28;20447;-74
2023/12/01 08:17:41;;;;;;;5.43;3.27;;;2.70;99.90;;;;;;5046313;28;20469;-75
2023/12/01 08:20:07;;;;;;;7.23;4.00;;;2.70;99.90;;;;;;5038487;28;20234;-74
2023/12/01 08:22:37;;;;;;;4.43;4.00;;;2.70;99.90;;;;;;5061171;28;20451;-74
2023/12/01 08:25:04;;;;;;;6.43;4.17;;;2.60;99.90;;;;;;5000007;28;20503;-73
2023/12/01 08:27:29;;;;;;;4.40;3.57;;;2.70;99.90;;;;;;5036815;28;20449;-73
2023/12/01 08:29:55;;;;;;;5.43;3.90;;;2.70;99.90;;;;;;5026497;28;20542;-74
2023/12/01 08:32:21;;;;;;;6.00;4.00;;;2.70;99.90;;;;;;5049125;28;20235;-74
2023/12/01 08:34:46;;;;;;;4.90;3.50;;;2.70;99.90;;;;;;5055220;28;20223;-74
2023/12/01 08:37:12;;;;;;;5.57;3.63;;;2.80;99.90;;;;;;5023809;28;20239;-74
2023/12/01 08:39:38;;;;;;;3.97;3.23;;;2.70;99.90;;;;;;5051626;28;20211;-74
2023/12/01 08:42:04;;;;;;;5.90;3.87;;;2.70;99.90;;;;;;5047261;28;20302;-74
2023/12/01 08:44:30;;;;;;;5.50;3.63;;;2.80;99.90;;;;;;5067057;28;20217;-74
2023/12/01 08:46:56;;;;;;;6.33;3.60;;;2.70;99.90;;;;;;5039593;28;20956;-74
2023/12/01 08:49:21;;;;;;;4.90;3.13;;;2.70;99.90;;;;;;5042265;28;20215;-72
2023/12/01 08:51:47;;;;;;;6.93;4.03;;;2.70;99.90;;;;;;5046960;28;20295;-74
2023/12/01 08:54:13;;;;;;;5.47;3.33;;;2.70;99.90;;;;;;5062776;28;20241;-71
2023/12/01 08:56:41;;;;;;;4.60;2.70;;;2.60;99.90;;;;;;5051019;28;20228;-74
2023/12/01 08:59:07;;;;;;;5.00;3.03;;;2.70;99.90;;;;;;5049998;28;20225;-75
2023/12/01 09:01:33;;;;;;;7.10;4.20;;;2.60;99.90;;;;;;5048008;28;20477;-74
2023/12/01 09:03:58;;;;;;;5.37;3.73;;;2.60;99.90;;;;;;5048290;28;20228;-74
2023/12/01 09:06:24;;;;;;;3.70;2.90;;;2.70;99.90;;;;;;5038430;28;20226;-74
2023/12/01 09:08:49;;;;;;;6.07;3.40;;;2.70;99.90;;;;;;5039383;28;20261;-74
2023/12/01 09:11:15;;;;;;;6.50;3.30;;;2.80;99.90;;;;;;5036860;28;20278;-74
2023/12/01 09:13:41;;;;;;;5.67;3.20;;;2.80;99.90;;;;;;5029011;28;20304;-74
2023/12/01 09:16:07;;;;;;;3.43;2.80;;;2.70;99.90;;;;;;5053118;28;20563;-73
2023/12/01 09:18:32;;;;;;;7.33;4.23;;;2.70;99.90;;;;;;5036662;28;20307;-74
2023/12/01 09:20:58;;;;;;;6.53;4.33;;;2.70;99.90;;;;;;5038026;28;20977;-74
2023/12/01 09:23:24;;;;;;;3.90;3.10;;;2.80;99.90;;;;;;5060994;28;20223;-74
2023/12/01 09:25:51;;;;;;;4.07;3.67;;;2.80;99.90;;;;;;5065647;28;20235;-74
2023/12/01 09:28:17;;;;;;;5.63;4.10;;;2.70;99.90;;;;;;5070716;28;20538;-73
2023/12/01 09:30:43;;;;;;;4.87;3.30;;;2.80;99.90;;;;;;5026016;28;20447;-74
2023/12/01 09:33:09;;;;;;;10.93;3.67;;;2.80;99.90;;;;;;5056578;28;20470;-74
2023/12/01 09:35:34;;;;;;;4.20;3.00;;;2.80;99.90;;;;;;5033402;28;20478;-74
2023/12/01 09:38:00;;;;;;;6.67;3.63;;;2.80;99.90;;;;;;5059692;28;20595;-74
2023/12/01 09:40:26;;;;;;;6.03;3.83;;;2.80;99.90;;;;;;5021940;28;20307;-73
2023/12/01 09:42:53;;;;;;;5.00;3.57;;;2.70;99.90;;;;;;5053666;28;20306;-74
2023/12/01 09:45:23;;;;;;;7.07;3.30;;;2.80;99.90;;;;;;5053927;28;20601;-73
2023/12/01 09:47:58;;;;;;;7.20;3.73;;;2.80;99.90;;;;;;5053568;28;20577;-74
2023/12/01 09:50:24;;;;;;;5.90;3.40;;;2.70;99.90;;;;;;5045776;28;20442;-72
2023/12/01 09:52:52;;;;;;;7.33;3.40;;;2.80;99.90;;;;;;5059128;28;20446;-73
2023/12/01 09:55:19;;;;;;;4.80;3.40;;;2.80;99.90;;;;;;5061644;28;20441;-74
2023/12/01 09:57:45;;;;;;;6.63;3.80;;;2.70;99.90;;;;;;5056816;28;20208;-74
2023/12/01 10:00:11;;;;;;;7.80;3.73;;;2.80;99.90;;;;;;5070218;28;20499;-74
2023/12/01 10:02:38;;;;;;;6.33;3.53;;;2.80;99.90;;;;;;5076317;28;20212;-74
2023/12/01 10:05:06;;;;;;;4.30;3.40;;;2.80;99.90;;;;;;5055327;28;20435;-74
2023/12/01 10:07:35;;;;;;;4.43;3.17;;;2.80;99.90;;;;;;5054295;28;20438;-74
2023/12/01 10:10:21;;;;;;;4.73;2.63;;;2.90;99.90;;;;;;5038313;28;20451;-74
2023/12/01 10:13:04;;;;;;;5.60;3.30;;;2.90;99.90;;;;;;5060046;28;20529;-74
2023/12/01 10:15:31;;;;;;;5.63;3.70;;;2.80;99.90;;;;;;5062330;28;20466;-73
2023/12/01 10:18:17;;;;;;;7.13;4.33;;;2.80;99.90;;;;;;5078066;28;20485;-74
2023/12/01 10:20:58;;;;;;;5.87;4.10;;;2.80;99.90;;;;;;5082042;28;20434;-73
2023/12/01 10:23:25;;;;;;;5.80;3.50;;;2.80;99.90;;;;;;5025188;28;20449;-73
2023/12/01 10:25:51;;;;;;;5.80;3.43;;;2.70;99.90;;;;;;5060943;28;20462;-75
2023/12/01 10:28:18;;;;;;;5.90;4.03;;;2.70;99.90;;;;;;5063054;28;20537;-74
2023/12/01 10:30:54;;;;;;;8.40;4.77;;;2.70;99.90;;;;;;5057233;28;20547;-74
2023/12/01 10:33:28;;;;;;;7.00;3.20;;;2.70;99.90;;;;;;5037245;28;20538;-74
2023/12/01 10:36:04;;;;;;;6.03;3.87;;;2.70;99.90;;;;;;5037145;28;20470;-74
2023/12/01 10:38:33;;;;;;;6.67;4.00;;;2.70;99.90;;;;;;5044356;28;20492;-73
2023/12/01 10:40:59;;;;;;;7.90;5.30;;;2.70;99.90;;;;;;5069606;28;20482;-74
2023/12/01 10:43:27;;;;;;;12.00;5.47;;;2.70;99.90;;;;;;5066503;28;20442;-74
2023/12/01 10:45:53;;;;;;;9.70;5.43;;;2.70;99.90;;;;;;5023375;28;20480;-74
2023/12/01 10:48:22;;;;;;;8.17;4.60;;;2.70;99.90;;;;;;5038884;28;20599;-74
2023/12/01 10:50:49;;;;;;;9.43;5.30;;;2.70;99.90;;;;;;5031910;28;20451;-74
2023/12/01 10:53:15;;;;;;;8.13;4.60;;;2.70;99.90;;;;;;5025769;28;20506;-74
2023/12/01 10:55:48;;;;;;;12.43;5.47;;;2.70;99.90;;;;;;5037441;28;20466;-74
2023/12/01 10:58:25;;;;;;;8.90;4.97;;;2.70;99.90;;;;;;5037180;28;20538;-74
2023/12/01 11:00:52;;;;;;;12.17;4.93;;;2.70;99.90;;;;;;5064544;28;20905;-74
2023/12/01 11:03:20;;;;;;;10.80;6.40;;;2.70;99.90;;;;;;5031074;28;20455;-73
2023/12/01 11:06:10;;;;;;;9.10;4.70;;;2.70;99.90;;;;;;5032359;28;20512;-74
2023/12/01 11:09:21;;;;;;;6.33;4.33;;;2.70;99.90;;;;;;5025585;28;20455;-74
2023/12/01 11:11:58;;;;;;;9.10;4.43;;;2.70;99.90;;;;;;5063455;28;20442;-74
2023/12/01 11:14:26;;;;;;;9.57;5.07;;;2.70;99.90;;;;;;5065969;28;20474;-74
2023/12/01 11:16:53;;;;;;;7.40;4.20;;;2.70;99.90;;;;;;5048536;28;20474;-74
2023/12/01 11:19:18;;;;;;;9.17;5.23;;;2.70;99.90;;;;;;5049721;28;20546;-74
2023/12/01 11:21:49;;;;;;;11.53;5.70;;;2.70;99.90;;;;;;5050819;28;20462;-74
2023/12/01 11:24:31;;;;;;;10.73;5.50;;;2.70;99.90;;;;;;5056008;28;20278;-74
2023/12/01 11:27:03;;;;;;;14.20;5.20;;;2.70;99.90;;;;;;5059730;28;20483;-75
2023/12/01 11:29:33;;;;;;;9.90;4.80;;;2.70;99.90;;;;;;5043634;28;20446;-73
2023/12/01 11:31:58;;;;;;;9.37;4.90;;;2.70;99.90;;;;;;5045611;28;20446;-74
2023/12/01 11:34:25;;;;;;;7.60;4.27;;;2.70;99.90;;;;;;5048648;28;20466;-73
2023/12/01 11:36:55;;;;;;;7.87;4.97;;;2.70;99.90;;;;;;5042710;28;20231;-74
2023/12/01 11:39:26;;;;;;;9.50;5.43;;;2.70;99.90;;;;;;5043534;28;20454;-74
2023/12/01 11:41:58;;;;;;;7.70;4.80;;;2.70;99.90;;;;;;5056366;28;20462;-74
2023/12/01 11:44:26;;;;;;;8.10;4.83;;;2.70;99.90;;;;;;5058999;28;20442;-73
2023/12/01 11:46:56;;;;;;;6.93;4.47;;;2.70;99.90;;;;;;5037288;28;20449;-74
2023/12/01 11:49:32;;;;;;;8.03;3.90;;;2.70;99.90;;;;;;5067291;28;20446;-71
2023/12/01 11:52:00;;;;;;;8.70;5.27;;;2.70;99.90;;;;;;5026916;28;20442;-74
2023/12/01 11:54:27;;;;;;;9.17;5.20;;;2.70;99.90;;;;;;5044828;28;20461;-74
2023/12/01 11:56:57;;;;;;;6.87;3.90;;;2.70;99.90;;;;;;5068001;28;20659;-74
2023/12/01 11:59:24;;;;;;;6.77;4.97;;;2.70;99.90;;;;;;5027111;28;20462;-72
2023/12/01 12:01:52;;;;;;;7.80;4.60;;;2.70;99.90;;;;;;5032665;28;20482;-74
2023/12/01 12:04:18;;;;;;;11.97;6.00;;;2.70;99.90;;;;;;5046528;28;20454;-72
2023/12/01 12:06:47;;;;;;;9.77;5.53;;;2.70;99.90;;;;;;5047428;28;20462;-74
2023/12/01 12:09:20;;;;;;;8.33;5.00;;;2.70;99.90;;;;;;5049347;28;20220;-74
2023/12/01 12:11:46;;;;;;;10.43;5.33;;;2.70;99.90;;;;;;5050144;28;20446;-74
2023/12/01 12:14:13;;;;;;;9.40;4.60;;;2.70;99.90;;;;;;5049613;28;20958;-76
2023/12/01 12:16:39;;;;;;;4.40;3.70;;;2.70;99.90;;;;;;5049458;28;20458;-74
2023/12/01 12:19:04;;;;;;;7.07;4.10;;;2.70;99.90;;;;;;5049289;28;20457;-74
2023/12/01 12:21:32;;;;;;;6.50;3.90;;;2.70;99.90;;;;;;5049597;28;20481;-74
2023/12/01 12:23:59;;;;;;;9.17;5.70;;;2.70;99.90;;;;;;5033914;28;20227;-74
2023/12/01 12:26:27;;;;;;;6.00;3.53;;;2.70;99.90;;;;;;5048439;28;20457;-73
2023/12/01 12:28:56;;;;;;;6.73;3.97;;;2.70;99.90;;;;;;5049677;28;20501;-74
2023/12/01 12:31:27;;;;;;;7.00;4.10;;;2.70;99.90;;;;;;5048607;28;20458;-74
2023/12/01 12:33:56;;;;;;;7.83;4.17;;;2.70;99.90;;;;;;5049522;28;20459;-74
2023/12/01 12:36:23;;;;;;;9.20;4.50;;;2.70;99.90;;;;;;5046600;28;20470;-73
2023/12/01 12:38:50;;;;;;;6.00;4.43;;;2.60;99.90;;;;;;5048416;28;20458;-74
2023/12/01 12:41:29;;;;;;;7.70;4.43;;;2.60;99.90;;;;;;5050543;28;20469;-74
2023/12/01 12:44:00;;;;;;;6.03;4.03;;;2.60;99.90;;;;;;5026379;28;20451;-74
2023/12/01 12:46:29;;;;;;;5.67;3.30;;;2.60;99.90;;;;;;5026586;28;20459;-74
2023/12/01 12:49:00;;;;;;;8.23;4.40;;;2.60;99.90;;;;;;5030393;28;20438;-74
2023/12/01 12:51:28;;;;;;;5.03;2.73;;;2.60;99.90;;;;;;5049950;28;20437;-72
2023/12/01 12:53:54;;;;;;;5.10;3.90;;;2.60;99.90;;;;;;5046758;28;20450;-73
2023/12/01 12:56:21;;;;;;;5.20;4.70;;;2.60;99.90;;;;;;5038908;28;20478;-73
2023/12/01 12:58:52;;;;;;;6.20;3.40;;;2.60;99.90;;;;;;5048524;28;20453;-73